Time;durP1;ratioP1;P1;durP2;ratioP2;P2;SDS_P1;SDS_P2;PMS_P1;PMS_P2;Temp;Humidity;BMP_temperature;BMP_pressure;BME280_temperature;BME280_humidity;BME280_pressure;Samples;Min_cycle;Max_cycle;Signal;HPM_P1;HPM_P2
2023/12/28 00:01:23;;;;;;;3.83;2.10;;;8.00;96.00;;;;;;5072213;28;20177;-66
2023/12/28 00:03:49;;;;;;;2.23;1.80;;;8.00;95.70;;;;;;5072282;28;20218;-66
2023/12/28 00:06:15;;;;;;;2.40;2.03;;;8.00;95.60;;;;;;5071898;28;20322;-65
2023/12/28 00:08:41;;;;;;;2.33;2.03;;;8.10;95.20;;;;;;5071843;28;20645;-65
2023/12/28 00:11:07;;;;;;;3.40;2.73;;;8.10;95.00;;;;;;5071981;28;20502;-66
2023/12/28 00:13:33;;;;;;;3.43;2.20;;;8.10;95.50;;;;;;5072091;28;20502;-65
2023/12/28 00:15:58;;;;;;;3.97;2.40;;;8.10;95.00;;;;;;5071969;28;20938;-65
2023/12/28 00:18:24;;;;;;;2.13;1.77;;;8.20;94.70;;;;;;5071656;28;20173;-65
2023/12/28 00:20:50;;;;;;;2.67;2.47;;;8.20;94.60;;;;;;5071943;28;20173;-65
2023/12/28 00:23:16;;;;;;;2.67;2.47;;;8.20;94.70;;;;;;5071911;28;20415;-65
2023/12/28 00:25:41;;;;;;;3.20;2.37;;;8.20;95.10;;;;;;5074863;28;20192;-66
2023/12/28 00:28:07;;;;;;;2.53;2.23;;;8.10;94.80;;;;;;5075759;28;20222;-65
2023/12/28 00:30:32;;;;;;;2.60;2.40;;;8.00;95.20;;;;;;5075905;28;20188;-66
2023/12/28 00:32:58;;;;;;;2.50;2.30;;;8.00;95.30;;;;;;5075999;28;20687;-66
2023/12/28 00:35:24;;;;;;;4.90;3.07;;;7.90;95.50;;;;;;5075875;28;20168;-65
2023/12/28 00:37:49;;;;;;;4.60;2.50;;;7.90;95.40;;;;;;5075536;28;20426;-66
2023/12/28 00:40:15;;;;;;;2.40;2.20;;;7.90;95.80;;;;;;5075732;28;20242;-66
2023/12/28 00:42:41;;;;;;;3.87;2.67;;;7.80;96.00;;;;;;5075774;28;20177;-65
2023/12/28 00:45:08;;;;;;;3.20;2.90;;;7.80;96.00;;;;;;5075619;28;20201;-65
2023/12/28 00:47:33;;;;;;;5.63;2.00;;;7.80;96.10;;;;;;5075486;28;20161;-65
2023/12/28 00:49:59;;;;;;;2.40;2.20;;;7.70;96.10;;;;;;5075490;28;20492;-66
2023/12/28 00:52:24;;;;;;;3.10;1.90;;;7.70;96.30;;;;;;5074999;28;20184;-65
2023/12/28 00:54:50;;;;;;;2.10;1.90;;;7.60;96.40;;;;;;5075571;28;20173;-65
2023/12/28 00:57:15;;;;;;;3.63;2.70;;;7.60;96.50;;;;;;5075170;28;20264;-66
2023/12/28 00:59:41;;;;;;;3.20;2.80;;;7.60;97.40;;;;;;5075299;28;20707;-66
2023/12/28 01:02:07;;;;;;;3.00;2.40;;;7.60;97.30;;;;;;5075329;28;20169;-66
2023/12/28 01:04:33;;;;;;;3.43;2.53;;;7.50;97.50;;;;;;5075191;28;20421;-65
2023/12/28 01:07:01;;;;;;;3.60;2.50;;;7.50;97.60;;;;;;5074930;28;20207;-66
2023/12/28 01:09:27;;;;;;;2.40;2.20;;;7.50;98.00;;;;;;5075209;28;20261;-66
2023/12/28 01:11:53;;;;;;;2.60;2.40;;;7.50;97.90;;;;;;5075172;28;20411;-66
2023/12/28 01:14:18;;;;;;;3.70;2.33;;;7.50;97.60;;;;;;5075172;28;20173;-65
2023/12/28 01:16:44;;;;;;;3.03;2.73;;;7.60;98.00;;;;;;5074762;28;20177;-66
2023/12/28 01:19:09;;;;;;;3.20;2.80;;;7.50;97.60;;;;;;5074826;28;20216;-66
2023/12/28 01:21:35;;;;;;;3.47;2.90;;;7.60;97.70;;;;;;5075016;28;20231;-65
2023/12/28 01:24:00;;;;;;;2.57;2.37;;;7.50;98.20;;;;;;5074983;28;20168;-65
2023/12/28 01:26:26;;;;;;;3.13;2.73;;;7.40;98.50;;;;;;5074592;28;20281;-66
2023/12/28 01:28:51;;;;;;;2.70;2.50;;;7.40;98.50;;;;;;5074891;28;20189;-65
2023/12/28 01:31:17;;;;;;;5.27;2.77;;;7.40;98.50;;;;;;5074808;28;20672;-65
2023/12/28 01:33:42;;;;;;;2.50;2.27;;;7.40;98.90;;;;;;5074792;28;20181;-65
2023/12/28 01:36:18;;;;;;;2.57;2.20;;;7.30;99.00;;;;;;5074786;28;20181;-65
2023/12/28 01:38:44;;;;;;;2.83;2.63;;;7.30;99.30;;;;;;5074484;28;20215;-66
2023/12/28 01:41:09;;;;;;;2.47;2.27;;;7.20;99.70;;;;;;5074613;28;20450;-65
2023/12/28 01:43:35;;;;;;;5.43;2.60;;;7.20;99.90;;;;;;5074674;28;20165;-65
2023/12/28 01:46:00;;;;;;;2.77;2.47;;;7.20;99.90;;;;;;5074405;28;20662;-65
2023/12/28 01:48:27;;;;;;;2.83;2.40;;;7.30;99.80;;;;;;5074412;28;20535;-65
2023/12/28 01:50:53;;;;;;;3.00;2.23;;;7.20;99.90;;;;;;5074528;28;20165;-65
2023/12/28 01:53:18;;;;;;;2.70;2.50;;;7.20;99.90;;;;;;5073955;28;20981;-65
2023/12/28 01:55:44;;;;;;;2.77;2.50;;;7.20;99.80;;;;;;5074513;28;20165;-65
2023/12/28 01:58:10;;;;;;;2.67;2.13;;;7.20;99.90;;;;;;5074086;28;20192;-66
2023/12/28 02:00:38;;;;;;;3.13;2.50;;;7.20;99.90;;;;;;5074167;28;20689;-65
2023/12/28 02:03:05;;;;;;;3.10;2.07;;;7.10;99.90;;;;;;5074300;28;20423;-65
2023/12/28 02:05:32;;;;;;;2.90;2.60;;;7.10;99.90;;;;;;5074133;28;20442;-66
2023/12/28 02:07:57;;;;;;;2.43;2.23;;;7.10;99.90;;;;;;5073872;28;20811;-65
2023/12/28 02:10:23;;;;;;;3.07;2.87;;;7.10;99.90;;;;;;5074117;28;20446;-66
2023/12/28 02:12:49;;;;;;;3.00;2.37;;;7.00;99.90;;;;;;5074176;28;20180;-65
2023/12/28 02:15:15;;;;;;;2.40;2.13;;;7.00;99.90;;;;;;5074159;28;20192;-65
2023/12/28 02:17:55;;;;;;;2.73;2.50;;;7.00;99.90;;;;;;5073876;28;20458;-65
2023/12/28 02:20:22;;;;;;;3.80;2.33;;;6.90;99.90;;;;;;5073915;28;20279;-65
2023/12/28 02:22:48;;;;;;;5.00;2.80;;;6.90;99.90;;;;;;5074059;28;20506;-65
2023/12/28 02:25:14;;;;;;;3.10;2.63;;;6.90;99.90;;;;;;5073677;28;20443;-65
2023/12/28 02:27:46;;;;;;;2.83;2.53;;;6.90;99.90;;;;;;5073528;28;20902;-65
2023/12/28 02:30:12;;;;;;;3.40;2.10;;;6.90;99.90;;;;;;5073591;28;20185;-65
2023/12/28 02:33:00;;;;;;;2.63;2.43;;;6.90;99.90;;;;;;5073671;28;20427;-66
2023/12/28 02:35:44;;;;;;;2.70;2.50;;;6.90;99.90;;;;;;5073617;28;20498;-66
2023/12/28 02:38:11;;;;;;;3.07;2.50;;;6.80;99.90;;;;;;5073204;28;20411;-66
2023/12/28 02:40:38;;;;;;;2.50;2.30;;;6.80;99.90;;;;;;5073418;28;20439;-65
2023/12/28 02:43:08;;;;;;;1.80;1.70;;;6.80;99.90;;;;;;5073449;28;20427;-65
2023/12/28 02:45:34;;;;;;;3.00;2.80;;;6.80;99.90;;;;;;5073361;28;20451;-66
2023/12/28 02:48:00;;;;;;;2.67;2.43;;;6.80;99.90;;;;;;5072448;28;20455;-65
2023/12/28 02:50:25;;;;;;;4.70;2.90;;;6.80;99.90;;;;;;5073191;28;20473;-66
2023/12/28 02:52:51;;;;;;;5.20;2.50;;;6.70;99.90;;;;;;5072735;28;20165;-65
2023/12/28 02:55:16;;;;;;;2.17;1.97;;;6.80;99.90;;;;;;5073252;28;20623;-65
2023/12/28 02:57:43;;;;;;;3.40;2.33;;;6.80;99.90;;;;;;5072828;28;20202;-65
2023/12/28 03:00:10;;;;;;;2.80;2.60;;;6.70;99.90;;;;;;5072844;28;20217;-65
2023/12/28 03:02:37;;;;;;;2.80;2.60;;;6.70;99.90;;;;;;5073033;28;20758;-65
2023/12/28 03:05:03;;;;;;;3.50;2.53;;;6.70;99.90;;;;;;5072914;28;20512;-65
2023/12/28 03:07:29;;;;;;;2.40;1.93;;;6.60;99.90;;;;;;5072634;28;20418;-65
2023/12/28 03:09:54;;;;;;;3.50;2.50;;;6.60;99.90;;;;;;5072889;28;20841;-65
2023/12/28 03:12:20;;;;;;;1.93;1.80;;;6.60;99.90;;;;;;5072915;28;20554;-65
2023/12/28 03:14:45;;;;;;;3.37;2.30;;;6.70;99.90;;;;;;5072734;28;20180;-65
2023/12/28 03:17:12;;;;;;;4.13;2.40;;;6.70;99.90;;;;;;5054582;28;20529;-65
2023/12/28 03:19:37;;;;;;;2.57;2.20;;;6.80;99.90;;;;;;5072707;28;20265;-65
2023/12/28 03:22:03;;;;;;;3.03;2.20;;;6.80;99.90;;;;;;5054875;28;20424;-65
2023/12/28 03:24:28;;;;;;;2.00;1.80;;;6.80;99.90;;;;;;5072607;28;20268;-65
2023/12/28 03:26:54;;;;;;;2.50;2.30;;;6.90;99.90;;;;;;5072317;28;20196;-65
2023/12/28 03:29:20;;;;;;;2.33;2.10;;;6.90;99.90;;;;;;5072473;28;20192;-65
2023/12/28 03:31:46;;;;;;;2.20;1.87;;;6.90;99.90;;;;;;5072478;28;20169;-65
2023/12/28 03:34:11;;;;;;;3.40;2.60;;;6.90;99.90;;;;;;5072494;28;20173;-65
2023/12/28 03:36:37;;;;;;;2.67;1.90;;;6.90;99.90;;;;;;5072379;28;20557;-65
2023/12/28 03:39:03;;;;;;;2.33;2.10;;;6.90;99.90;;;;;;5072474;28;20738;-65
2023/12/28 03:41:29;;;;;;;2.03;1.83;;;6.90;99.90;;;;;;5072461;28;20556;-65
2023/12/28 03:43:55;;;;;;;3.00;2.03;;;6.90;99.90;;;;;;5072381;28;20423;-65
2023/12/28 03:46:20;;;;;;;2.30;2.10;;;6.90;99.90;;;;;;5072061;28;20963;-65
2023/12/28 03:48:46;;;;;;;2.37;2.17;;;6.90;99.90;;;;;;5072124;28;20185;-65
2023/12/28 03:51:15;;;;;;;3.63;2.13;;;7.00;99.90;;;;;;5072272;28;20222;-65
2023/12/28 03:53:44;;;;;;;4.63;2.20;;;7.00;99.90;;;;;;5071739;28;20176;-65
2023/12/28 03:56:24;;;;;;;3.50;2.07;;;7.00;99.90;;;;;;5072155;28;20812;-65
2023/12/28 03:58:50;;;;;;;2.57;2.37;;;7.20;99.90;;;;;;5071171;28;20447;-65
2023/12/28 04:01:22;;;;;;;2.93;2.30;;;7.30;99.90;;;;;;5072098;28;20780;-65
2023/12/28 04:03:48;;;;;;;2.80;2.20;;;7.40;99.90;;;;;;5072198;28;20935;-65
2023/12/28 04:06:14;;;;;;;4.27;2.33;;;7.50;99.90;;;;;;5071970;28;20611;-65
2023/12/28 04:08:41;;;;;;;1.67;1.57;;;7.70;99.90;;;;;;5071841;28;20446;-66
2023/12/28 04:11:06;;;;;;;1.80;1.70;;;7.80;99.90;;;;;;5072022;28;20426;-65
2023/12/28 04:13:32;;;;;;;2.60;2.10;;;7.80;99.90;;;;;;5072008;28;20423;-65
2023/12/28 04:15:57;;;;;;;2.83;2.10;;;7.90;99.70;;;;;;5071951;28;20638;-65
2023/12/28 04:18:23;;;;;;;2.00;1.90;;;7.90;99.50;;;;;;5071650;28;20218;-65
2023/12/28 04:20:49;;;;;;;1.67;1.57;;;8.00;98.80;;;;;;5071996;28;20252;-65
2023/12/28 04:23:14;;;;;;;2.20;1.80;;;8.10;99.50;;;;;;5071897;28;20173;-66
2023/12/28 04:25:40;;;;;;;3.50;2.00;;;8.10;99.40;;;;;;5071887;28;20240;-65
2023/12/28 04:28:06;;;;;;;2.40;2.20;;;8.10;98.80;;;;;;5071657;28;20609;-64
2023/12/28 04:30:32;;;;;;;3.07;2.77;;;8.10;99.30;;;;;;5071751;28;20262;-65
2023/12/28 04:32:57;;;;;;;3.40;2.10;;;8.10;99.10;;;;;;5071920;28;20427;-65
2023/12/28 04:35:23;;;;;;;2.97;2.27;;;8.10;99.30;;;;;;5071806;28;20549;-65
2023/12/28 04:37:48;;;;;;;2.77;2.10;;;8.00;99.60;;;;;;5053411;28;20221;-65
2023/12/28 04:40:17;;;;;;;2.93;2.10;;;8.10;99.50;;;;;;5071721;28;20201;-65
2023/12/28 04:42:43;;;;;;;2.40;1.87;;;8.10;99.50;;;;;;5071771;28;20181;-65
2023/12/28 04:45:09;;;;;;;2.17;1.97;;;8.20;99.40;;;;;;5071609;28;20520;-65
2023/12/28 04:47:35;;;;;;;2.93;2.00;;;8.30;98.70;;;;;;5071370;28;20419;-66
2023/12/28 04:50:02;;;;;;;2.60;1.97;;;8.40;98.60;;;;;;5071608;28;20807;-65
2023/12/28 04:52:28;;;;;;;2.20;1.43;;;8.40;98.50;;;;;;5071116;28;20173;-66
2023/12/28 04:54:53;;;;;;;4.23;2.43;;;8.40;98.60;;;;;;5071645;28;20426;-65
2023/12/28 04:57:19;;;;;;;2.27;2.07;;;8.40;98.40;;;;;;5071272;28;20579;-66
2023/12/28 04:59:45;;;;;;;2.30;1.83;;;8.40;99.20;;;;;;5071392;28;20228;-65
2023/12/28 05:02:10;;;;;;;2.23;2.03;;;8.40;99.30;;;;;;5071500;28;20177;-65
2023/12/28 05:04:39;;;;;;;2.70;2.17;;;8.30;99.60;;;;;;5071438;28;20184;-66
2023/12/28 05:07:04;;;;;;;1.80;1.70;;;8.30;99.90;;;;;;5071177;28;20638;-66
2023/12/28 05:09:31;;;;;;;2.70;1.90;;;8.30;99.90;;;;;;5071444;28;20443;-66
2023/12/28 05:11:56;;;;;;;1.73;1.63;;;8.20;99.90;;;;;;5074559;28;20193;-66
2023/12/28 05:14:22;;;;;;;2.93;1.87;;;8.20;99.90;;;;;;5075123;28;20453;-66
2023/12/28 05:16:48;;;;;;;2.30;2.10;;;8.30;99.90;;;;;;5074815;28;20613;-66
2023/12/28 05:19:13;;;;;;;4.23;2.50;;;8.30;99.90;;;;;;5074977;28;20193;-66
2023/12/28 05:21:38;;;;;;;2.50;2.30;;;8.30;99.90;;;;;;5075012;28;20177;-66
2023/12/28 05:24:04;;;;;;;2.07;1.83;;;8.30;99.90;;;;;;5075124;28;20180;-66
2023/12/28 05:26:30;;;;;;;2.17;1.97;;;8.40;99.90;;;;;;5074589;28;20192;-66
2023/12/28 05:28:55;;;;;;;2.13;1.90;;;8.50;99.90;;;;;;5074802;28;20275;-66
2023/12/28 05:31:21;;;;;;;2.77;2.40;;;8.50;99.90;;;;;;5074889;28;20509;-66
2023/12/28 05:33:46;;;;;;;2.23;1.73;;;8.60;99.90;;;;;;5074783;28;20184;-66
2023/12/28 05:36:12;;;;;;;3.53;2.27;;;8.60;99.90;;;;;;5074814;28;20270;-66
2023/12/28 05:38:37;;;;;;;2.07;1.83;;;8.60;99.90;;;;;;5074474;28;20199;-65
2023/12/28 05:41:03;;;;;;;1.83;1.57;;;8.60;99.90;;;;;;5074919;28;20222;-66
2023/12/28 05:43:28;;;;;;;2.30;2.10;;;8.60;99.90;;;;;;5074649;28;20177;-66
2023/12/28 05:45:54;;;;;;;2.97;1.83;;;8.60;99.90;;;;;;5074468;28;20291;-66
2023/12/28 05:48:19;;;;;;;3.93;2.67;;;8.50;99.90;;;;;;5074237;28;20173;-66
2023/12/28 05:50:45;;;;;;;2.73;2.00;;;8.50;99.90;;;;;;5056596;28;20176;-66
2023/12/28 05:53:14;;;;;;;2.50;2.00;;;8.40;99.90;;;;;;5074229;28;20248;-66
2023/12/28 05:55:40;;;;;;;2.17;1.90;;;8.40;99.90;;;;;;5074434;28;20257;-66
2023/12/28 05:58:06;;;;;;;2.37;2.13;;;8.30;99.90;;;;;;5073979;28;20411;-66
2023/12/28 06:00:31;;;;;;;2.70;2.17;;;8.20;99.90;;;;;;5089541;22;20498;-68
2023/12/28 06:02:57;;;;;;;4.80;2.20;;;8.20;99.90;;;;;;5074390;28;20703;-68
2023/12/28 06:05:22;;;;;;;2.03;1.90;;;8.20;99.90;;;;;;5074206;28;20680;-68
2023/12/28 06:07:48;;;;;;;2.77;2.13;;;8.20;99.90;;;;;;5074342;28;20165;-68
2023/12/28 06:10:13;;;;;;;2.00;1.90;;;8.20;99.90;;;;;;5074133;28;20215;-68
2023/12/28 06:12:39;;;;;;;2.17;1.90;;;8.20;99.90;;;;;;5074385;28;20180;-68
2023/12/28 06:15:05;;;;;;;2.03;1.80;;;8.20;99.90;;;;;;5074085;28;20274;-68
2023/12/28 06:17:31;;;;;;;2.00;1.80;;;8.20;99.90;;;;;;5073852;28;20168;-68
2023/12/28 06:19:56;;;;;;;2.40;2.17;;;8.20;99.90;;;;;;5073912;28;20439;-68
2023/12/28 06:22:22;;;;;;;2.20;2.10;;;8.20;99.90;;;;;;5073042;28;20544;-68
2023/12/28 06:24:47;;;;;;;1.77;1.67;;;8.20;99.90;;;;;;5073898;28;20173;-68
2023/12/28 06:27:12;;;;;;;2.77;2.13;;;8.20;99.90;;;;;;5073660;28;20161;-68
2023/12/28 06:29:39;;;;;;;2.17;1.97;;;8.20;99.90;;;;;;5073830;28;20200;-68
2023/12/28 06:32:05;;;;;;;1.77;1.67;;;8.20;99.90;;;;;;5073747;28;20244;-68
2023/12/28 06:34:30;;;;;;;2.97;2.63;;;8.20;99.90;;;;;;5073621;28;20411;-68
2023/12/28 06:36:56;;;;;;;5.60;2.70;;;8.20;99.90;;;;;;5055806;28;20950;-68
2023/12/28 06:39:21;;;;;;;4.90;3.77;;;8.20;99.90;;;;;;5073589;28;20207;-68
2023/12/28 06:41:48;;;;;;;2.60;2.33;;;8.30;99.90;;;;;;5073611;28;20208;-68
2023/12/28 06:44:14;;;;;;;2.73;2.00;;;8.30;99.90;;;;;;5073621;28;20165;-68
2023/12/28 06:46:40;;;;;;;6.33;4.00;;;8.40;99.90;;;;;;5073240;28;20447;-68
2023/12/28 06:49:06;;;;;;;3.87;2.63;;;8.40;99.90;;;;;;5073343;28;20446;-68
2023/12/28 06:51:31;;;;;;;3.00;2.70;;;8.40;99.90;;;;;;5055445;28;20168;-68
2023/12/28 06:53:57;;;;;;;3.53;3.23;;;8.40;99.90;;;;;;5073164;28;20276;-68
2023/12/28 06:56:22;;;;;;;4.37;3.17;;;8.40;99.90;;;;;;5073142;28;20218;-68
2023/12/28 06:58:48;;;;;;;3.77;3.20;;;8.40;99.90;;;;;;5073097;28;20169;-68
2023/12/28 07:01:13;;;;;;;4.20;3.77;;;8.30;99.90;;;;;;5073056;28;20614;-68
2023/12/28 07:03:40;;;;;;;2.40;2.23;;;8.30;99.90;;;;;;5073091;28;20231;-68
2023/12/28 07:06:05;;;;;;;3.97;2.63;;;8.30;99.90;;;;;;5072959;28;20244;-68
2023/12/28 07:08:31;;;;;;;2.40;2.20;;;8.30;99.90;;;;;;5072795;28;20931;-68
2023/12/28 07:10:57;;;;;;;2.80;2.60;;;8.40;99.90;;;;;;5072929;28;20593;-68
2023/12/28 07:13:22;;;;;;;3.60;3.13;;;8.40;99.90;;;;;;5072963;28;20165;-69
2023/12/28 07:15:48;;;;;;;3.07;2.47;;;8.50;99.90;;;;;;5072932;28;20843;-68
2023/12/28 07:18:14;;;;;;;4.00;2.47;;;8.50;99.90;;;;;;5072742;28;20256;-68
2023/12/28 07:20:39;;;;;;;3.10;2.60;;;8.60;99.90;;;;;;5072724;28;20234;-68
2023/12/28 07:23:05;;;;;;;3.23;2.47;;;8.70;99.90;;;;;;5054761;28;20173;-68
2023/12/28 07:25:31;;;;;;;3.13;2.17;;;8.80;99.90;;;;;;5072706;28;20200;-68
2023/12/28 07:27:56;;;;;;;3.40;2.30;;;8.70;99.90;;;;;;5072846;28;20172;-68
2023/12/28 07:30:21;;;;;;;2.90;2.60;;;8.80;99.90;;;;;;5072529;28;20277;-68
2023/12/28 07:32:47;;;;;;;2.70;2.50;;;8.90;99.90;;;;;;5072602;28;20177;-68
2023/12/28 07:35:13;;;;;;;4.70;3.40;;;9.00;99.90;;;;;;5072468;28;20306;-68
2023/12/28 07:37:38;;;;;;;4.07;3.67;;;9.00;99.90;;;;;;5072369;28;20169;-68
2023/12/28 07:40:04;;;;;;;3.33;3.03;;;8.90;99.90;;;;;;5072389;28;20215;-68
2023/12/28 07:42:30;;;;;;;4.93;3.03;;;8.90;99.90;;;;;;5072668;28;20183;-68
2023/12/28 07:44:55;;;;;;;3.43;2.83;;;8.90;99.90;;;;;;5072389;28;20539;-68
2023/12/28 07:47:21;;;;;;;7.53;5.30;;;8.90;99.90;;;;;;5072248;28;20230;-67
2023/12/28 07:49:46;;;;;;;3.70;3.40;;;8.90;99.90;;;;;;5072328;28;20603;-68
2023/12/28 07:52:12;;;;;;;3.70;2.80;;;8.80;99.90;;;;;;5072220;28;20706;-67
2023/12/28 07:54:37;;;;;;;3.13;2.80;;;8.90;99.90;;;;;;5072368;28;20219;-68
2023/12/28 07:57:03;;;;;;;2.60;2.40;;;8.90;99.90;;;;;;5072071;28;20169;-68
2023/12/28 07:59:29;;;;;;;3.83;3.53;;;9.00;99.90;;;;;;5072233;28;20211;-68
2023/12/28 08:01:55;;;;;;;4.70;3.67;;;9.00;99.90;;;;;;5072222;28;20819;-68
2023/12/28 08:04:20;;;;;;;11.37;6.10;;;8.90;99.90;;;;;;5072168;28;20177;-68
2023/12/28 08:06:46;;;;;;;25.47;18.00;;;9.00;99.90;;;;;;5071908;28;20546;-67
2023/12/28 08:09:12;;;;;;;44.37;31.33;;;8.90;99.90;;;;;;5072105;28;20298;-67
2023/12/28 08:11:37;;;;;;;45.07;31.43;;;8.90;99.90;;;;;;5072062;28;20233;-68
2023/12/28 08:14:03;;;;;;;20.17;13.87;;;8.90;99.90;;;;;;5072165;28;20176;-67
2023/12/28 08:16:28;;;;;;;7.13;5.60;;;8.90;99.90;;;;;;5053939;28;20223;-68
2023/12/28 08:18:54;;;;;;;4.77;4.37;;;9.00;99.90;;;;;;5053942;28;20226;-68
2023/12/28 08:21:19;;;;;;;7.63;6.90;;;9.00;99.90;;;;;;5071996;28;20248;-68
2023/12/28 08:23:44;;;;;;;6.07;5.40;;;9.00;99.90;;;;;;5072257;28;20645;-67
2023/12/28 08:26:10;;;;;;;15.30;12.03;;;9.00;99.90;;;;;;5071884;28;20204;-68
2023/12/28 08:28:36;;;;;;;13.20;9.80;;;8.80;99.90;;;;;;5071822;28;20568;-68
2023/12/28 08:31:02;;;;;;;10.43;9.23;;;8.70;99.90;;;;;;5071899;28;20220;-67
2023/12/28 08:33:27;;;;;;;7.33;5.50;;;8.70;99.90;;;;;;5071811;28;20415;-67
2023/12/28 08:35:53;;;;;;;7.60;4.53;;;8.70;99.90;;;;;;5071869;28;20196;-67
2023/12/28 08:38:19;;;;;;;4.20;3.80;;;8.80;99.90;;;;;;5071695;28;20657;-67
2023/12/28 08:40:45;;;;;;;6.40;5.07;;;8.90;99.90;;;;;;5071767;28;20439;-68
2023/12/28 08:43:10;;;;;;;6.00;4.13;;;9.00;99.90;;;;;;5053818;28;20185;-68
2023/12/28 08:45:36;;;;;;;4.80;4.20;;;9.10;99.90;;;;;;5072762;28;20204;-68
2023/12/28 08:48:02;;;;;;;4.60;3.43;;;9.10;99.90;;;;;;5075558;28;20196;-68
2023/12/28 08:50:28;;;;;;;7.17;3.70;;;9.20;99.90;;;;;;5075594;28;20192;-68
2023/12/28 08:52:53;;;;;;;6.87;5.00;;;9.30;99.90;;;;;;5075880;28;20415;-68
2023/12/28 08:55:19;;;;;;;6.13;5.53;;;9.30;99.90;;;;;;5057629;28;20180;-68
2023/12/28 08:57:44;;;;;;;5.43;4.83;;;9.40;99.90;;;;;;5075479;28;20544;-67
2023/12/28 09:00:11;;;;;;;6.00;4.40;;;9.40;99.90;;;;;;5075263;28;20712;-68
2023/12/28 09:02:37;;;;;;;4.13;3.57;;;9.50;99.90;;;;;;5075369;28;20177;-68
2023/12/28 09:05:03;;;;;;;5.80;4.37;;;9.50;99.90;;;;;;5075333;28;20458;-68
2023/12/28 09:07:28;;;;;;;8.00;6.10;;;9.60;99.90;;;;;;5075278;28;20924;-68
2023/12/28 09:09:54;;;;;;;5.03;4.43;;;9.60;99.90;;;;;;5075216;28;20188;-68
2023/12/28 09:12:19;;;;;;;4.90;4.50;;;9.50;99.90;;;;;;5075276;28;20219;-68
2023/12/28 09:14:45;;;;;;;3.83;3.53;;;9.50;99.90;;;;;;5075487;28;20208;-67
2023/12/28 09:17:11;;;;;;;3.67;3.37;;;9.60;99.90;;;;;;5075045;28;20260;-68
2023/12/28 09:19:37;;;;;;;3.00;2.80;;;9.60;99.90;;;;;;5075248;28;20193;-68
2023/12/28 09:22:03;;;;;;;2.70;2.50;;;9.70;99.90;;;;;;5075053;28;20422;-68
2023/12/28 09:24:29;;;;;;;4.60;2.77;;;9.70;99.90;;;;;;5075047;28;20648;-68
2023/12/28 09:26:54;;;;;;;6.43;4.37;;;9.80;99.90;;;;;;5074803;28;20579;-68
2023/12/28 09:29:20;;;;;;;5.73;2.93;;;9.90;99.90;;;;;;5074909;28;20193;-68
2023/12/28 09:31:46;;;;;;;3.50;3.20;;;10.00;99.90;;;;;;5074888;28;20183;-68
2023/12/28 09:34:11;;;;;;;3.40;2.00;;;10.00;99.90;;;;;;5074810;28;20249;-68
2023/12/28 09:36:37;;;;;;;5.00;2.23;;;10.10;99.90;;;;;;5074541;28;20419;-68
2023/12/28 09:39:03;;;;;;;3.70;2.00;;;10.20;99.90;;;;;;5074632;28;20294;-68
2023/12/28 09:41:32;;;;;;;3.07;2.40;;;10.30;99.90;;;;;;5074782;28;20169;-68
2023/12/28 09:44:11;;;;;;;3.27;2.43;;;10.40;99.90;;;;;;5074839;28;20560;-67
2023/12/28 09:46:38;;;;;;;11.13;9.40;;;10.50;99.90;;;;;;5074448;28;20441;-68
2023/12/28 09:49:04;;;;;;;7.80;2.37;;;10.60;99.90;;;;;;5074612;28;20453;-68
2023/12/28 09:51:30;;;;;;;2.80;2.60;;;10.70;99.90;;;;;;5074510;28;20819;-68
2023/12/28 09:53:56;;;;;;;2.20;2.03;;;10.70;99.90;;;;;;5074542;28;20256;-68
2023/12/28 09:56:23;;;;;;;3.60;2.37;;;10.70;99.90;;;;;;5073841;28;20222;-68
2023/12/28 09:58:51;;;;;;;2.87;2.67;;;10.80;99.90;;;;;;5073685;28;20419;-68
2023/12/28 10:01:17;;;;;;;3.23;2.70;;;10.70;99.90;;;;;;5074539;28;20465;-68
2023/12/28 10:03:43;;;;;;;3.90;2.50;;;10.70;99.90;;;;;;5074379;28;20931;-68
2023/12/28 10:06:09;;;;;;;2.73;2.53;;;10.80;99.90;;;;;;5074240;28;20493;-68
2023/12/28 10:08:35;;;;;;;3.33;2.10;;;10.70;99.90;;;;;;5074038;28;20778;-68
2023/12/28 10:11:02;;;;;;;3.93;2.70;;;10.60;99.90;;;;;;5074122;28;20550;-68
2023/12/28 10:13:28;;;;;;;2.40;2.20;;;10.60;99.90;;;;;;5074191;28;20498;-68
2023/12/28 10:15:57;;;;;;;3.30;2.60;;;10.60;99.90;;;;;;5074105;28;20581;-67
2023/12/28 10:18:23;;;;;;;2.47;2.27;;;10.60;99.90;;;;;;5073866;28;20223;-67
2023/12/28 10:20:54;;;;;;;3.90;2.90;;;10.60;99.90;;;;;;5073910;28;20439;-68
2023/12/28 10:23:23;;;;;;;2.83;2.13;;;10.60;99.90;;;;;;5073952;28;20915;-68
2023/12/28 10:25:53;;;;;;;2.43;2.23;;;10.50;99.90;;;;;;5073867;28;20446;-68
2023/12/28 10:28:19;;;;;;;2.60;2.40;;;10.50;99.90;;;;;;5073645;28;20928;-68
2023/12/28 10:30:45;;;;;;;2.47;2.20;;;10.60;99.90;;;;;;5055743;28;20427;-67
2023/12/28 10:33:10;;;;;;;6.60;3.53;;;10.60;99.90;;;;;;5073754;28;20757;-68
2023/12/28 10:35:36;;;;;;;2.40;2.20;;;10.60;99.90;;;;;;5073735;28;20183;-68
2023/12/28 10:38:03;;;;;;;2.63;2.40;;;10.60;99.90;;;;;;5073518;28;20210;-68
2023/12/28 10:40:30;;;;;;;3.20;2.30;;;10.60;99.90;;;;;;5055559;28;20242;-68
2023/12/28 10:43:03;;;;;;;2.73;1.63;;;10.70;99.90;;;;;;5073521;28;20415;-68
2023/12/28 10:45:33;;;;;;;2.60;2.30;;;10.70;99.90;;;;;;5073727;28;20447;-68
2023/12/28 10:47:58;;;;;;;3.43;2.00;;;10.80;99.90;;;;;;5073327;28;20457;-68
2023/12/28 10:50:28;;;;;;;3.70;2.33;;;10.90;99.90;;;;;;5073371;28;20448;-68
2023/12/28 10:53:00;;;;;;;3.20;2.20;;;11.00;99.90;;;;;;5073398;28;20216;-68
2023/12/28 10:55:36;;;;;;;2.30;2.10;;;11.20;99.90;;;;;;5073333;28;20790;-68
2023/12/28 10:58:19;;;;;;;3.20;1.77;;;11.30;99.90;;;;;;5073169;28;20446;-68
2023/12/28 11:00:55;;;;;;;2.57;2.30;;;11.30;99.90;;;;;;5073177;28;20458;-68
2023/12/28 11:03:27;;;;;;;2.43;2.03;;;11.30;99.90;;;;;;5073257;28;20488;-68
2023/12/28 11:05:53;;;;;;;2.20;2.00;;;11.30;99.90;;;;;;5055104;28;20443;-68
2023/12/28 11:08:19;;;;;;;3.77;2.20;;;11.30;99.90;;;;;;5072500;28;20469;-68
2023/12/28 11:10:47;;;;;;;1.83;1.73;;;11.30;99.90;;;;;;5072891;28;20470;-68
2023/12/28 11:13:15;;;;;;;2.43;2.07;;;11.30;99.90;;;;;;5072634;28;20536;-68
2023/12/28 11:15:41;;;;;;;3.17;2.00;;;11.40;99.90;;;;;;5072620;28;20422;-68
2023/12/28 11:18:06;;;;;;;2.40;2.20;;;11.40;99.90;;;;;;5072355;28;20415;-68
2023/12/28 11:20:33;;;;;;;3.10;2.80;;;11.40;99.90;;;;;;5072360;28;20196;-68
2023/12/28 11:22:59;;;;;;;3.53;3.03;;;11.40;99.90;;;;;;5072656;28;20542;-68
2023/12/28 11:25:31;;;;;;;2.67;2.20;;;11.40;99.90;;;;;;5072503;28;20538;-68
2023/12/28 11:27:56;;;;;;;4.33;2.87;;;11.40;99.90;;;;;;5072435;28;20431;-68
2023/12/28 11:30:27;;;;;;;3.57;2.83;;;11.40;99.90;;;;;;5072565;28;20488;-68
2023/12/28 11:32:56;;;;;;;1.63;1.53;;;11.50;99.90;;;;;;5072165;28;20167;-67
2023/12/28 11:35:22;;;;;;;2.13;1.83;;;11.40;99.90;;;;;;5072296;28;20504;-67
2023/12/28 11:37:52;;;;;;;1.90;1.50;;;11.40;99.90;;;;;;5072274;28;20846;-68
2023/12/28 11:40:20;;;;;;;3.00;1.80;;;11.30;99.90;;;;;;5072266;28;20195;-68
2023/12/28 11:42:54;;;;;;;2.23;1.80;;;11.20;99.90;;;;;;5072233;28;20423;-67
2023/12/28 11:45:21;;;;;;;2.00;1.90;;;11.30;99.90;;;;;;5072033;28;20785;-68
2023/12/28 11:47:46;;;;;;;3.57;2.70;;;11.20;99.90;;;;;;5072090;28;20949;-68
2023/12/28 11:50:13;;;;;;;2.50;2.30;;;11.20;99.90;;;;;;5072237;28;20423;-67
2023/12/28 11:52:40;;;;;;;2.60;1.73;;;11.10;99.90;;;;;;5072650;28;20183;-68
2023/12/28 11:55:05;;;;;;;2.77;1.90;;;11.10;99.90;;;;;;5072476;28;20502;-68
2023/12/28 11:57:31;;;;;;;1.60;1.40;;;11.10;99.90;;;;;;5072160;28;20207;-68
2023/12/28 12:00:02;;;;;;;2.63;2.33;;;11.10;99.90;;;;;;5086094;22;20307;-68
2023/12/28 12:02:28;;;;;;;2.40;2.30;;;11.10;99.90;;;;;;5092363;28;20153;-68
2023/12/28 12:04:55;;;;;;;2.40;2.10;;;11.10;99.90;;;;;;5092262;28;20483;-67
2023/12/28 12:07:20;;;;;;;2.70;2.50;;;11.10;99.90;;;;;;5092182;28;20188;-67
2023/12/28 12:09:46;;;;;;;2.00;1.70;;;11.10;99.90;;;;;;5092292;28;20449;-67
2023/12/28 12:12:12;;;;;;;2.90;2.20;;;11.10;99.90;;;;;;5092475;28;20482;-68
2023/12/28 12:14:37;;;;;;;3.50;2.37;;;11.10;99.90;;;;;;5092384;28;20176;-68
2023/12/28 12:17:03;;;;;;;2.40;2.20;;;11.20;99.90;;;;;;5092132;28;20172;-68
2023/12/28 12:19:29;;;;;;;3.17;1.90;;;11.20;99.90;;;;;;5091842;28;20199;-68
2023/12/28 12:21:56;;;;;;;2.80;2.60;;;11.10;99.90;;;;;;5091640;28;20795;-68
2023/12/28 12:24:22;;;;;;;2.80;2.50;;;11.10;99.90;;;;;;5092156;28;20176;-67
2023/12/28 12:26:49;;;;;;;2.10;1.90;;;11.00;99.90;;;;;;5091855;28;20460;-68
2023/12/28 12:29:15;;;;;;;2.33;2.13;;;11.00;99.90;;;;;;5091932;28;20423;-67
2023/12/28 12:31:41;;;;;;;2.37;2.10;;;11.00;99.90;;;;;;5092140;28;20495;-68
2023/12/28 12:34:09;;;;;;;2.40;2.20;;;11.10;99.90;;;;;;5092041;28;20168;-68
2023/12/28 12:36:34;;;;;;;4.70;2.37;;;11.20;99.90;;;;;;5092008;28;20426;-67
2023/12/28 12:39:00;;;;;;;2.77;2.10;;;11.30;99.90;;;;;;5092361;28;20501;-68
2023/12/28 12:41:26;;;;;;;2.70;1.80;;;11.30;99.90;;;;;;5092005;28;20200;-68
2023/12/28 12:43:55;;;;;;;6.50;5.47;;;11.40;99.90;;;;;;5091996;28;20256;-68
2023/12/28 12:46:21;;;;;;;2.90;2.63;;;11.40;99.90;;;;;;5091739;28;20506;-68
2023/12/28 12:48:55;;;;;;;3.10;2.40;;;11.40;99.90;;;;;;5091758;28;20824;-67